createdAt,value
2022-10-03T00:01:40.098Z,1.00
2022-10-03T00:04:27.522Z,1.00
2022-10-03T00:07:08.566Z,1.00
2022-10-03T00:09:56.809Z,1.00
2022-10-03T00:12:47.543Z,1.00
2022-10-03T00:15:25.908Z,1.00
2022-10-03T00:18:05.216Z,1.00
2022-10-03T00:20:47.136Z,1.00
2022-10-03T00:23:23.169Z,1.00
2022-10-03T00:26:25.049Z,24.30
2022-10-03T00:29:06.149Z,66.50
2022-10-03T00:31:48.802Z,38.40
2022-10-03T00:34:32.490Z,42.60
2022-10-03T00:37:24.835Z,1.00
2022-10-03T00:40:32.799Z,1.00
2022-10-03T00:43:43.515Z,57.10
2022-10-03T00:46:44.829Z,1.00
2022-10-03T00:49:41.756Z,99.90
2022-10-03T00:52:36.182Z,99.90
2022-10-03T00:55:18.551Z,99.90
2022-10-03T00:58:08.264Z,99.90
2022-10-03T01:00:37.986Z,99.90
2022-10-03T01:03:40.729Z,1.00
2022-10-03T01:06:21.501Z,1.00
2022-10-03T01:09:09.871Z,99.90
2022-10-03T01:11:51.378Z,99.90
2022-10-03T01:14:38.740Z,69.70
2022-10-03T01:17:15.831Z,63.30
2022-10-03T01:20:00.891Z,24.50
2022-10-03T01:22:54.165Z,80.70
2022-10-03T01:25:38.939Z,99.90
2022-10-03T01:28:52.735Z,99.90
2022-10-03T01:31:27.150Z,99.90
2022-10-03T01:34:05.550Z,99.90
2022-10-03T01:36:44.927Z,99.90
2022-10-03T01:39:23.382Z,99.90
2022-10-03T01:42:01.000Z,99.90
2022-10-03T01:44:42.607Z,99.90
2022-10-03T01:47:21.659Z,99.90
2022-10-03T01:49:56.053Z,99.90
2022-10-03T01:52:35.480Z,99.90
2022-10-03T01:55:15.743Z,99.90
2022-10-03T01:57:50.386Z,99.90
2022-10-03T02:00:24.110Z,99.90
2022-10-03T02:03:02.685Z,1.00
2022-10-03T02:05:44.874Z,1.00
2022-10-03T02:08:28.512Z,1.00
2022-10-03T02:11:02.956Z,1.00
2022-10-03T02:13:42.327Z,1.00
2022-10-03T02:16:19.434Z,1.00
2022-10-03T02:18:55.614Z,1.00
2022-10-03T02:21:27.159Z,1.00
2022-10-03T02:24:20.377Z,1.00
2022-10-03T02:27:12.566Z,1.00
2022-10-03T02:30:12.874Z,99.90
2022-10-03T02:33:10.953Z,1.00
2022-10-03T02:36:11.502Z,99.90
2022-10-03T02:39:23.278Z,99.90
2022-10-03T02:42:28.913Z,99.90
2022-10-03T02:45:34.968Z,1.00
2022-10-03T02:48:43.226Z,99.90
2022-10-03T02:51:43.131Z,1.00
2022-10-03T02:54:47.377Z,75.00
2022-10-03T02:57:52.472Z,1.00
2022-10-03T03:00:22.763Z,99.90
2022-10-03T03:03:31.583Z,1.00
2022-10-03T03:06:31.277Z,1.00
2022-10-03T03:09:30.611Z,99.90
2022-10-03T03:12:41.342Z,99.90
2022-10-03T03:16:03.625Z,99.90
2022-10-03T03:18:39.792Z,99.90
2022-10-03T03:21:22.871Z,1.00
2022-10-03T03:24:19.748Z,1.00
2022-10-03T03:27:22.680Z,99.90
2022-10-03T03:30:05.492Z,99.90
2022-10-03T03:32:50.098Z,1.00
2022-10-03T03:35:32.974Z,1.00
2022-10-03T03:38:14.418Z,1.00
2022-10-03T03:40:55.558Z,99.90
2022-10-03T03:44:20.722Z,99.90
2022-10-03T03:47:24.980Z,92.60
2022-10-03T03:50:13.709Z,99.90
2022-10-03T03:52:59.410Z,99.00
2022-10-03T03:55:48.844Z,99.90
2022-10-03T03:58:34.221Z,98.80
2022-10-03T04:01:36.844Z,99.90
2022-10-03T04:04:18.255Z,99.90
2022-10-03T04:06:58.036Z,99.90
2022-10-03T04:09:43.714Z,99.90
2022-10-03T04:12:26.577Z,1.00
2022-10-03T04:15:33.954Z,99.90
2022-10-03T04:18:41.307Z,1.00
2022-10-03T04:21:29.847Z,99.90
2022-10-03T04:24:12.481Z,99.90
2022-10-03T04:27:04.113Z,99.90
2022-10-03T04:29:48.343Z,1.00
2022-10-03T04:32:46.056Z,99.90
2022-10-03T04:35:40.190Z,1.00
2022-10-03T04:38:15.816Z,1.00
2022-10-03T04:40:56.025Z,1.00
2022-10-03T04:43:37.054Z,72.70
2022-10-03T04:46:25.309Z,10.00
2022-10-03T04:49:02.531Z,1.00
2022-10-03T04:51:44.268Z,1.40
2022-10-03T04:54:24.101Z,99.90
2022-10-03T04:57:00.441Z,99.90
2022-10-03T04:59:44.549Z,99.90
2022-10-03T05:02:26.994Z,1.00
2022-10-03T05:05:23.151Z,1.00
2022-10-03T05:08:06.385Z,99.90
2022-10-03T05:10:57.455Z,99.90
2022-10-03T05:13:41.104Z,99.90
2022-10-03T05:16:18.939Z,99.90
2022-10-03T05:18:53.910Z,1.00
2022-10-03T05:21:34.826Z,1.00
2022-10-03T05:24:15.789Z,1.00
2022-10-03T05:26:55.271Z,99.90
2022-10-03T05:29:34.121Z,99.90
2022-10-03T05:32:18.475Z,99.90
2022-10-03T05:35:05.575Z,99.90
2022-10-03T05:38:04.876Z,99.90
2022-10-03T05:40:38.982Z,61.00
2022-10-03T05:43:24.103Z,1.00
2022-10-03T05:46:02.774Z,99.90
2022-10-03T05:48:47.499Z,87.40
2022-10-03T05:51:58.120Z,1.00
2022-10-03T05:54:47.837Z,99.90
2022-10-03T05:57:50.336Z,99.90
2022-10-03T06:00:25.165Z,1.00
2022-10-03T06:03:43.918Z,99.90
2022-10-03T06:06:24.349Z,1.00
2022-10-03T06:09:14.063Z,1.00
2022-10-03T06:12:11.181Z,99.90
2022-10-03T06:14:59.258Z,99.90
2022-10-03T06:17:54.905Z,99.90
2022-10-03T06:20:56.253Z,99.90
2022-10-03T06:23:53.238Z,1.00
2022-10-03T06:26:49.596Z,1.00
2022-10-03T06:30:12.879Z,1.00
2022-10-03T06:33:29.763Z,32.70
2022-10-03T06:36:32.826Z,1.00
2022-10-03T06:40:07.482Z,99.90
2022-10-03T06:43:15.345Z,8.30
2022-10-03T06:46:27.812Z,1.00
2022-10-03T06:49:44.286Z,1.00
2022-10-03T06:52:58.793Z,99.90
2022-10-03T06:56:04.152Z,99.90
2022-10-03T06:59:10.365Z,99.90
2022-10-03T07:02:12.016Z,99.90
2022-10-03T07:05:10.315Z,99.90
2022-10-03T07:08:21.832Z,99.90
2022-10-03T07:11:18.188Z,99.90
2022-10-03T07:14:17.057Z,1.00
2022-10-03T07:17:09.078Z,1.00
2022-10-03T07:20:06.797Z,1.00
2022-10-03T07:23:14.678Z,1.00
2022-10-03T07:26:27.849Z,1.00
2022-10-03T07:29:19.792Z,1.00
2022-10-03T07:32:03.420Z,1.00
2022-10-03T07:35:08.374Z,1.00
2022-10-03T07:38:38.624Z,1.00
2022-10-03T07:41:31.913Z,1.00
2022-10-03T07:44:47.583Z,1.00
2022-10-03T07:48:05.085Z,1.00
2022-10-03T07:51:12.402Z,1.00
2022-10-03T07:54:11.686Z,1.00
2022-10-03T07:57:23.386Z,1.00
2022-10-03T08:00:24.641Z,1.00
2022-10-03T08:03:35.281Z,1.00
2022-10-03T08:06:18.592Z,1.00
2022-10-03T08:09:23.224Z,1.00
2022-10-03T08:12:30.477Z,1.00
2022-10-03T08:15:05.510Z,1.00
2022-10-03T08:18:10.312Z,1.00
2022-10-03T08:20:53.103Z,1.00
2022-10-03T08:23:54.287Z,1.00
2022-10-03T08:26:45.066Z,1.00
2022-10-03T08:29:46.719Z,1.00
2022-10-03T16:42:14.227Z,1.00
2022-10-03T16:44:56.335Z,1.00
2022-10-03T16:47:36.216Z,1.00
2022-10-03T16:50:23.995Z,1.00
2022-10-03T16:52:55.700Z,1.00
2022-10-03T16:55:30.702Z,1.00
2022-10-03T16:58:09.024Z,1.00
2022-10-03T17:00:46.656Z,1.00
2022-10-03T17:03:22.095Z,1.00
2022-10-03T17:06:02.326Z,1.00
2022-10-03T17:08:42.674Z,1.00
2022-10-03T17:11:26.989Z,1.00
2022-10-03T17:14:01.832Z,1.00
2022-10-03T17:16:48.054Z,1.00
2022-10-03T17:19:24.126Z,1.00
2022-10-03T17:21:55.932Z,1.00
2022-10-03T17:24:38.146Z,1.00
2022-10-03T17:27:17.678Z,1.00
2022-10-03T17:29:52.042Z,1.00
2022-10-03T17:32:25.522Z,1.00
2022-10-03T17:35:03.341Z,1.00
2022-10-03T17:38:37.026Z,1.00
2022-10-03T17:41:17.483Z,1.00
2022-10-03T17:43:58.996Z,1.00
2022-10-03T17:46:39.271Z,1.00
2022-10-03T17:49:22.411Z,1.00
2022-10-03T17:51:54.022Z,1.00
2022-10-03T17:54:28.708Z,1.00
2022-10-03T17:57:06.436Z,1.00
2022-10-03T17:59:47.985Z,1.00
2022-10-03T18:02:22.397Z,1.00
2022-10-03T18:05:01.508Z,1.00
2022-10-03T18:07:32.719Z,1.00
2022-10-03T18:10:02.440Z,1.00
2022-10-03T18:12:35.548Z,1.00
2022-10-03T18:15:36.043Z,1.00
2022-10-03T18:18:34.861Z,1.00
2022-10-03T18:21:07.991Z,1.00
2022-10-03T18:23:54.894Z,1.00
2022-10-03T18:26:30.006Z,1.00
2022-10-03T18:29:13.706Z,1.00
2022-10-03T18:31:47.568Z,1.00
2022-10-03T18:34:22.752Z,1.00
2022-10-03T18:36:54.600Z,1.00
2022-10-03T18:39:27.732Z,1.00
2022-10-03T18:42:00.435Z,1.00
2022-10-03T18:44:32.766Z,1.00
2022-10-03T18:47:21.670Z,1.00
2022-10-03T18:50:04.346Z,1.00
2022-10-03T18:52:40.042Z,1.00
2022-10-03T18:55:20.623Z,1.00
2022-10-03T18:58:00.619Z,1.00
2022-10-03T19:00:32.979Z,1.00
2022-10-03T19:03:13.891Z,1.00
2022-10-03T19:05:48.933Z,1.00
2022-10-03T19:08:23.780Z,1.00
2022-10-03T19:10:55.553Z,1.00
2022-10-03T19:13:34.747Z,1.00
2022-10-03T19:16:24.124Z,1.00
2022-10-03T19:19:05.026Z,1.00
2022-10-03T19:21:40.394Z,1.00
2022-10-03T19:24:13.388Z,1.00
2022-10-03T19:26:47.812Z,1.00
2022-10-03T19:29:22.127Z,1.00
2022-10-03T19:32:01.701Z,1.00
2022-10-03T19:34:37.915Z,1.00
2022-10-03T19:37:12.888Z,1.00
2022-10-03T19:39:41.913Z,1.00
2022-10-03T19:42:29.096Z,1.00
2022-10-03T19:45:00.077Z,1.00
2022-10-03T19:47:33.823Z,1.00
2022-10-03T19:50:14.475Z,1.00
2022-10-03T19:52:44.465Z,1.00
2022-10-03T19:55:18.024Z,1.00
2022-10-03T19:57:52.045Z,1.00
2022-10-03T20:00:37.079Z,1.00
2022-10-03T20:03:16.066Z,1.00
2022-10-03T20:06:07.418Z,1.00
2022-10-03T20:08:46.603Z,10.60
2022-10-03T20:11:42.757Z,10.10
2022-10-03T20:14:17.170Z,12.10
2022-10-03T20:16:52.866Z,15.40
2022-10-03T20:19:25.733Z,25.40
2022-10-03T20:21:57.808Z,62.00
2022-10-03T20:24:34.049Z,71.30
2022-10-03T20:27:20.383Z,82.80
2022-10-03T20:29:58.872Z,99.90
2022-10-03T20:32:28.687Z,99.90
2022-10-03T20:35:01.638Z,97.90
2022-10-03T20:37:47.406Z,99.90
2022-10-03T20:40:38.121Z,97.50
2022-10-03T20:43:37.753Z,99.30
2022-10-03T20:46:19.200Z,73.70
2022-10-03T20:49:07.267Z,80.50
2022-10-03T20:51:45.003Z,80.60
2022-10-03T20:54:19.017Z,66.60
2022-10-03T20:56:55.598Z,56.20
2022-10-03T20:59:31.732Z,55.30
2022-10-03T21:02:04.871Z,55.70
2022-10-03T21:04:38.425Z,55.70
2022-10-03T21:07:18.404Z,39.40
2022-10-03T21:10:00.887Z,40.30
2022-10-03T21:12:34.275Z,27.80
2022-10-03T21:15:08.655Z,27.60
2022-10-03T21:17:38.268Z,44.70
2022-10-03T21:20:10.130Z,46.70
2022-10-03T21:22:39.985Z,49.10
2022-10-03T21:25:23.508Z,47.90
2022-10-03T21:27:56.650Z,40.20
2022-10-03T21:34:09.614Z,33.40
2022-10-03T21:36:49.766Z,61.20
2022-10-03T21:39:23.811Z,61.60
2022-10-03T21:42:15.580Z,85.10
2022-10-03T21:45:09.601Z,71.40
2022-10-03T21:47:47.906Z,49.40
2022-10-03T21:50:23.060Z,34.30
2022-10-03T21:53:17.982Z,36.40
2022-10-03T21:56:00.401Z,27.60
2022-10-03T21:59:03.541Z,57.70
2022-10-03T22:01:39.998Z,46.90
2022-10-03T22:04:29.720Z,61.90
2022-10-03T22:07:16.538Z,41.00
2022-10-03T22:10:01.119Z,75.20
2022-10-03T22:12:45.209Z,69.20
2022-10-03T22:15:37.379Z,99.90
2022-10-03T22:18:15.158Z,99.90
2022-10-03T22:20:54.884Z,99.90
2022-10-03T22:23:40.227Z,99.90
2022-10-03T22:26:19.055Z,99.90
2022-10-03T22:29:00.319Z,99.90
2022-10-03T22:31:41.487Z,99.90
2022-10-03T22:34:26.976Z,99.90
2022-10-03T22:36:55.954Z,99.90
2022-10-03T22:39:25.324Z,99.90
2022-10-03T22:42:02.590Z,99.90
2022-10-03T22:44:34.127Z,99.90
2022-10-03T22:47:09.397Z,99.90
2022-10-03T22:49:43.004Z,99.90
2022-10-03T22:52:18.910Z,99.90
2022-10-03T22:54:50.036Z,99.90
2022-10-03T22:57:19.943Z,99.90
2022-10-03T22:59:51.889Z,93.60
2022-10-03T23:02:29.390Z,77.00
2022-10-03T23:05:03.184Z,92.50
2022-10-03T23:07:48.208Z,94.70
2022-10-03T23:10:43.055Z,89.40
2022-10-03T23:15:49.235Z,55.00
2022-10-03T23:18:48.680Z,87.50
2022-10-03T23:21:17.426Z,75.70
2022-10-03T23:24:03.685Z,68.90
2022-10-03T23:27:06.747Z,49.20
2022-10-03T23:29:35.579Z,39.60
2022-10-03T23:32:07.398Z,42.20
2022-10-03T23:35:08.368Z,60.30
2022-10-03T23:37:44.512Z,33.70
2022-10-03T23:40:39.575Z,19.50
2022-10-03T23:43:35.072Z,21.00
2022-10-03T23:46:06.760Z,26.10
2022-10-03T23:48:45.535Z,13.60
2022-10-03T23:51:25.830Z,7.90
2022-10-03T23:53:58.648Z,19.00
2022-10-03T23:56:35.682Z,17.60
2022-10-03T23:59:19.160Z,7.60
